Time;durP1;ratioP1;P1;durP2;ratioP2;P2;SDS_P1;SDS_P2;PMS_P1;PMS_P2;Temp;Humidity;BMP_temperature;BMP_pressure;BME280_temperature;BME280_humidity;BME280_pressure;Samples;Min_cycle;Max_cycle;Signal;HPM_P1;HPM_P2
2023/05/31 00:01:48;;;;;;;14.75;4.70;;;10.80;99.90;;;;;;5120160;28;20055;-57
2023/05/31 00:04:14;;;;;;;10.50;3.80;;;10.70;99.90;;;;;;5120114;28;20050;-57
2023/05/31 00:06:39;;;;;;;8.73;4.18;;;10.70;99.90;;;;;;5121272;28;20039;-57
2023/05/31 00:09:05;;;;;;;11.57;3.95;;;10.60;99.90;;;;;;5118401;28;20077;-58
2023/05/31 00:11:30;;;;;;;9.68;4.10;;;10.60;99.90;;;;;;5120560;28;20044;-57
2023/05/31 00:13:56;;;;;;;9.48;3.80;;;10.60;99.90;;;;;;5119943;28;20057;-58
2023/05/31 00:16:22;;;;;;;11.38;4.03;;;10.60;99.90;;;;;;5120119;28;20415;-58
2023/05/31 00:18:47;;;;;;;8.70;4.10;;;10.50;99.90;;;;;;5120605;28;20040;-58
2023/05/31 00:21:13;;;;;;;9.75;4.53;;;10.50;99.90;;;;;;5120206;28;20072;-57
2023/05/31 00:23:39;;;;;;;10.05;4.40;;;10.60;99.90;;;;;;5120650;28;20043;-57
2023/05/31 00:26:05;;;;;;;11.13;4.07;;;10.40;99.90;;;;;;5119517;28;20051;-57
2023/05/31 00:28:30;;;;;;;10.82;4.53;;;10.30;99.90;;;;;;5120953;28;20057;-57
2023/05/31 00:30:56;;;;;;;10.27;4.50;;;10.50;99.90;;;;;;5119387;28;20171;-57
2023/05/31 00:33:22;;;;;;;10.45;4.32;;;10.40;99.90;;;;;;5118412;28;20040;-57
2023/05/31 00:35:47;;;;;;;10.25;4.60;;;10.30;99.90;;;;;;5119699;28;20202;-58
2023/05/31 00:38:13;;;;;;;11.80;4.25;;;10.40;99.90;;;;;;5118272;28;20430;-57
2023/05/31 00:40:39;;;;;;;9.57;4.38;;;10.50;99.90;;;;;;5120492;28;20039;-57
2023/05/31 00:43:05;;;;;;;9.90;4.60;;;10.20;99.90;;;;;;5119399;28;20036;-58
2023/05/31 00:45:32;;;;;;;9.88;4.20;;;10.30;99.90;;;;;;5120236;28;20039;-57
2023/05/31 00:48:02;;;;;;;11.73;5.18;;;10.30;99.90;;;;;;5119713;28;20053;-57
2023/05/31 00:50:29;;;;;;;11.48;4.50;;;10.00;99.90;;;;;;5119598;28;20035;-58
2023/05/31 00:52:57;;;;;;;10.93;4.97;;;10.00;99.90;;;;;;5119888;28;20048;-55
2023/05/31 00:55:24;;;;;;;11.77;4.70;;;10.00;99.90;;;;;;5117840;28;20067;-57
2023/05/31 00:57:51;;;;;;;11.02;5.30;;;10.10;99.90;;;;;;5119945;28;20062;-58
2023/05/31 01:00:17;;;;;;;10.15;5.00;;;10.00;99.90;;;;;;5119206;28;20497;-57
2023/05/31 01:02:43;;;;;;;15.35;5.22;;;10.00;99.90;;;;;;5119961;28;20147;-58
2023/05/31 01:05:09;;;;;;;15.52;5.30;;;10.10;99.90;;;;;;5119303;28;20108;-58
2023/05/31 01:07:36;;;;;;;13.30;5.18;;;10.10;99.90;;;;;;5119497;28;20039;-57
2023/05/31 01:10:03;;;;;;;13.30;5.30;;;10.10;99.90;;;;;;5119731;28;20423;-57
2023/05/31 01:12:53;;;;;;;13.13;5.15;;;10.00;99.90;;;;;;5119298;28;20502;-57
2023/05/31 01:15:26;;;;;;;12.80;5.43;;;10.10;99.90;;;;;;5120171;28;20048;-57
2023/05/31 01:18:10;;;;;;;10.88;5.05;;;10.20;99.90;;;;;;5119320;28;20048;-57
2023/05/31 01:20:39;;;;;;;12.10;4.95;;;9.90;99.90;;;;;;5118882;28;20043;-58
2023/05/31 01:23:18;;;;;;;12.50;5.53;;;10.10;99.90;;;;;;5119472;28;20040;-58
2023/05/31 01:26:17;;;;;;;11.02;4.85;;;10.00;99.90;;;;;;5119209;28;20056;-57
2023/05/31 01:28:49;;;;;;;12.63;5.32;;;10.10;99.90;;;;;;5119823;28;20087;-58
2023/05/31 01:31:20;;;;;;;14.48;5.40;;;10.10;99.90;;;;;;5118948;28;20422;-58
2023/05/31 01:33:47;;;;;;;12.95;5.07;;;9.90;99.90;;;;;;5119073;28;20067;-58
2023/05/31 01:36:13;;;;;;;13.68;5.22;;;10.00;99.90;;;;;;5119861;28;20120;-57
2023/05/31 01:38:38;;;;;;;12.02;5.32;;;9.90;99.90;;;;;;5118804;28;20503;-56
2023/05/31 01:41:06;;;;;;;11.10;4.78;;;9.70;99.90;;;;;;5120309;28;20442;-58
2023/05/31 01:43:33;;;;;;;12.32;5.60;;;9.70;99.90;;;;;;5119107;28;20050;-57
2023/05/31 01:46:00;;;;;;;10.25;4.70;;;9.90;99.90;;;;;;5118828;28;20040;-57
2023/05/31 01:48:28;;;;;;;12.05;5.30;;;9.90;99.90;;;;;;5117628;28;20044;-57
2023/05/31 01:50:55;;;;;;;12.02;5.35;;;9.90;99.90;;;;;;5119156;28;20047;-58
2023/05/31 01:53:21;;;;;;;13.23;5.85;;;9.70;99.90;;;;;;5119598;28;20047;-57
2023/05/31 01:55:47;;;;;;;13.45;6.35;;;9.80;99.90;;;;;;5118617;28;20550;-57
2023/05/31 01:58:14;;;;;;;12.70;5.80;;;9.80;99.90;;;;;;5118465;28;20446;-57
2023/05/31 02:00:41;;;;;;;13.27;5.90;;;9.70;99.90;;;;;;5118177;28;20052;-57
2023/05/31 02:03:07;;;;;;;11.95;6.20;;;9.80;99.90;;;;;;5119388;28;20032;-58
2023/05/31 02:05:32;;;;;;;12.55;6.45;;;9.80;99.90;;;;;;5119154;28;20043;-56
2023/05/31 02:07:58;;;;;;;13.77;5.82;;;9.80;99.90;;;;;;5117810;28;20051;-57
2023/05/31 02:10:24;;;;;;;11.98;6.28;;;9.90;99.90;;;;;;5118262;28;20122;-56
2023/05/31 02:12:54;;;;;;;14.25;6.13;;;9.90;99.90;;;;;;5118613;28;20043;-57
2023/05/31 02:15:20;;;;;;;11.75;6.07;;;9.70;99.90;;;;;;5119648;28;20069;-57
2023/05/31 02:17:50;;;;;;;15.48;6.05;;;9.90;99.90;;;;;;5118614;28;20058;-57
2023/05/31 02:20:17;;;;;;;13.43;6.13;;;9.80;99.90;;;;;;5118952;28;20043;-57
2023/05/31 02:22:44;;;;;;;15.55;6.93;;;9.70;99.90;;;;;;5118856;28;20044;-57
2023/05/31 02:25:12;;;;;;;15.77;6.72;;;9.70;99.90;;;;;;5118834;28;20096;-57
2023/05/31 02:27:39;;;;;;;14.85;6.10;;;9.80;99.90;;;;;;5118988;28;20038;-56
2023/05/31 02:30:06;;;;;;;13.73;6.43;;;9.80;99.90;;;;;;5118296;28;20054;-57
2023/05/31 02:32:37;;;;;;;13.68;6.50;;;9.90;99.90;;;;;;5121732;28;20054;-57
2023/05/31 02:35:08;;;;;;;11.90;5.43;;;9.80;99.90;;;;;;5120455;28;20047;-57
2023/05/31 02:37:35;;;;;;;13.30;5.78;;;9.60;99.90;;;;;;5103654;28;20515;-56
2023/05/31 02:40:08;;;;;;;12.55;6.00;;;9.60;99.90;;;;;;5121831;28;20585;-57
2023/05/31 02:42:41;;;;;;;14.23;6.43;;;9.70;99.90;;;;;;5121879;28;20054;-57
2023/05/31 02:45:09;;;;;;;16.98;7.75;;;9.80;99.90;;;;;;5123094;28;20575;-58
2023/05/31 02:47:37;;;;;;;13.18;6.35;;;9.70;99.90;;;;;;5121768;28;20032;-57
2023/05/31 02:50:04;;;;;;;13.15;6.57;;;9.70;99.90;;;;;;5122337;28;20051;-57
2023/05/31 02:52:30;;;;;;;14.63;6.25;;;9.90;99.90;;;;;;5121686;28;20069;-57
2023/05/31 02:54:56;;;;;;;18.05;6.80;;;9.90;99.90;;;;;;5121334;28;20055;-57
2023/05/31 02:57:21;;;;;;;16.35;6.57;;;9.70;99.90;;;;;;5121774;28;20378;-57
2023/05/31 02:59:50;;;;;;;15.45;6.78;;;9.80;99.90;;;;;;5121496;28;20040;-57
2023/05/31 03:02:16;;;;;;;14.75;7.68;;;9.80;99.90;;;;;;5122494;28;20085;-57
2023/05/31 03:04:41;;;;;;;13.52;6.68;;;9.70;99.90;;;;;;5121348;28;20052;-57
2023/05/31 03:07:07;;;;;;;13.85;6.15;;;9.80;99.90;;;;;;5122137;28;20074;-57
2023/05/31 03:09:33;;;;;;;14.65;6.72;;;9.80;99.90;;;;;;5121409;28;20036;-57
2023/05/31 03:12:01;;;;;;;13.57;6.40;;;9.60;99.90;;;;;;5102898;28;20070;-58
2023/05/31 03:14:26;;;;;;;12.52;6.30;;;9.70;99.90;;;;;;5121804;27;20035;-57
2023/05/31 03:16:52;;;;;;;15.68;6.60;;;9.70;99.90;;;;;;5121407;28;20224;-58
2023/05/31 03:19:18;;;;;;;15.15;6.82;;;9.70;99.90;;;;;;5122459;28;20055;-57
2023/05/31 03:21:44;;;;;;;15.20;6.35;;;9.60;99.90;;;;;;5120525;28;20082;-56
2023/05/31 03:24:10;;;;;;;13.48;6.45;;;9.80;99.90;;;;;;5121781;28;20036;-57
2023/05/31 03:26:35;;;;;;;13.38;6.63;;;9.60;99.90;;;;;;5121326;28;20043;-56
2023/05/31 03:29:01;;;;;;;16.77;7.05;;;9.50;99.90;;;;;;5121358;28;20104;-57
2023/05/31 03:31:29;;;;;;;14.55;6.85;;;9.70;99.90;;;;;;5121066;28;20028;-57
2023/05/31 03:33:56;;;;;;;14.50;6.82;;;9.60;99.90;;;;;;5121201;28;20040;-57
2023/05/31 03:36:21;;;;;;;18.13;6.72;;;9.60;99.90;;;;;;5121519;28;20127;-57
2023/05/31 03:38:47;;;;;;;14.40;6.40;;;9.60;99.90;;;;;;5120672;28;20426;-56
2023/05/31 03:41:13;;;;;;;14.25;6.72;;;9.70;99.90;;;;;;5121696;28;20047;-57
2023/05/31 03:43:38;;;;;;;17.42;6.80;;;9.70;99.90;;;;;;5120280;28;20051;-57
2023/05/31 03:46:04;;;;;;;14.02;6.90;;;9.90;99.90;;;;;;5120840;28;20042;-57
2023/05/31 03:48:30;;;;;;;15.52;6.90;;;9.90;99.90;;;;;;5119559;28;20043;-57
2023/05/31 03:50:57;;;;;;;13.27;7.22;;;9.90;99.90;;;;;;5120811;28;20448;-57
2023/05/31 03:53:22;;;;;;;15.60;7.20;;;9.90;99.90;;;;;;5121414;27;20027;-57
2023/05/31 03:55:48;;;;;;;15.23;6.97;;;9.90;99.90;;;;;;5120320;28;20058;-57
2023/05/31 03:58:14;;;;;;;17.88;7.55;;;10.00;99.90;;;;;;5121483;28;20048;-57
2023/05/31 04:00:41;;;;;;;15.38;6.95;;;10.00;99.90;;;;;;5120324;28;20051;-57
2023/05/31 04:03:07;;;;;;;16.17;7.00;;;9.80;99.90;;;;;;5120953;28;20050;-57
2023/05/31 04:05:33;;;;;;;17.58;7.05;;;10.00;99.90;;;;;;5118877;28;20076;-55
2023/05/31 04:08:01;;;;;;;16.83;6.95;;;10.10;99.90;;;;;;5120444;28;20122;-57
2023/05/31 04:10:27;;;;;;;13.57;6.38;;;10.20;99.90;;;;;;5121046;28;20043;-57
2023/05/31 04:12:52;;;;;;;15.43;7.22;;;10.10;99.90;;;;;;5119944;28;20066;-57
2023/05/31 04:15:18;;;;;;;13.20;6.75;;;10.10;99.90;;;;;;5121389;28;20074;-57
2023/05/31 04:17:45;;;;;;;15.95;6.65;;;10.20;99.90;;;;;;5119880;28;20398;-57
2023/05/31 04:20:12;;;;;;;17.17;6.55;;;10.00;99.90;;;;;;5120360;28;20051;-57
2023/05/31 04:22:37;;;;;;;17.75;6.93;;;10.30;99.90;;;;;;5120435;28;20032;-57
2023/05/31 04:25:03;;;;;;;14.70;6.45;;;10.40;99.90;;;;;;5120012;28;20099;-58
2023/05/31 04:27:32;;;;;;;14.52;6.03;;;10.20;99.90;;;;;;5120533;28;20048;-57
2023/05/31 04:29:58;;;;;;;14.35;7.05;;;10.40;99.90;;;;;;5119709;28;20041;-57
2023/05/31 04:32:27;;;;;;;16.58;7.32;;;10.30;99.90;;;;;;5120921;28;20070;-58
2023/05/31 04:34:57;;;;;;;18.30;6.82;;;10.50;99.90;;;;;;5101391;28;20105;-57
2023/05/31 04:37:28;;;;;;;14.73;6.95;;;10.60;99.90;;;;;;5118544;28;20047;-57
2023/05/31 04:39:54;;;;;;;18.17;6.22;;;10.70;99.90;;;;;;5119872;28;20028;-56
2023/05/31 04:42:20;;;;;;;14.60;6.00;;;10.50;99.90;;;;;;5119869;28;20071;-57
2023/05/31 04:44:46;;;;;;;18.60;6.75;;;11.00;99.90;;;;;;5120415;28;20427;-57
2023/05/31 04:47:15;;;;;;;16.42;6.65;;;10.70;99.90;;;;;;5119517;28;20047;-57
2023/05/31 04:49:41;;;;;;;14.35;7.15;;;10.90;99.90;;;;;;5120374;28;20089;-58
2023/05/31 04:52:08;;;;;;;15.18;7.05;;;10.90;99.90;;;;;;5118300;28;20050;-57
2023/05/31 04:54:33;;;;;;;16.17;7.25;;;11.30;99.90;;;;;;5118854;28;20103;-57
2023/05/31 04:57:00;;;;;;;13.55;6.70;;;11.30;99.90;;;;;;5119560;28;20050;-57
2023/05/31 04:59:26;;;;;;;17.85;7.35;;;11.20;99.90;;;;;;5119509;28;20052;-58
2023/05/31 05:01:52;;;;;;;16.13;7.32;;;11.30;99.90;;;;;;5120068;28;20047;-58
2023/05/31 05:04:18;;;;;;;15.60;7.38;;;11.50;99.90;;;;;;5119378;28;20047;-57
2023/05/31 05:06:43;;;;;;;16.08;7.18;;;11.60;99.90;;;;;;5120528;28;20516;-57
2023/05/31 05:09:09;;;;;;;16.55;6.82;;;11.60;99.90;;;;;;5119194;28;20043;-57
2023/05/31 05:11:35;;;;;;;16.45;6.70;;;11.90;99.90;;;;;;5119601;28;20055;-57
2023/05/31 05:14:01;;;;;;;14.98;6.35;;;11.70;99.90;;;;;;5119664;28;20046;-58
2023/05/31 05:16:27;;;;;;;15.18;7.18;;;12.00;99.90;;;;;;5119068;28;20049;-58
2023/05/31 05:18:52;;;;;;;19.33;6.57;;;11.90;99.90;;;;;;5120057;28;20040;-57
2023/05/31 05:21:18;;;;;;;18.67;6.55;;;12.20;99.90;;;;;;5118566;28;20047;-57
2023/05/31 05:23:44;;;;;;;20.25;7.72;;;12.20;99.90;;;;;;5120452;28;20105;-58
2023/05/31 05:26:10;;;;;;;18.00;6.80;;;12.20;99.90;;;;;;5118941;28;20039;-57
2023/05/31 05:28:36;;;;;;;17.50;7.40;;;12.50;99.90;;;;;;5119578;28;20051;-57
2023/05/31 05:31:03;;;;;;;17.85;6.85;;;12.40;99.90;;;;;;5118441;28;20043;-58
2023/05/31 05:33:29;;;;;;;16.42;6.88;;;12.40;99.90;;;;;;5118814;28;20048;-57
2023/05/31 05:35:55;;;;;;;18.25;6.47;;;12.60;99.90;;;;;;5119033;28;20103;-56
2023/05/31 05:38:21;;;;;;;14.18;6.15;;;12.90;99.90;;;;;;5118825;28;20036;-57
2023/05/31 05:40:47;;;;;;;17.45;6.15;;;12.80;99.90;;;;;;5120287;28;20115;-57
2023/05/31 05:43:13;;;;;;;17.50;6.30;;;13.10;99.90;;;;;;5119147;28;20050;-57
2023/05/31 05:45:39;;;;;;;15.07;6.00;;;13.30;99.90;;;;;;5119327;28;20048;-57
2023/05/31 05:48:04;;;;;;;16.90;5.82;;;13.30;99.90;;;;;;5115943;28;20043;-57
2023/05/31 05:50:30;;;;;;;16.73;5.20;;;13.40;99.90;;;;;;5115445;28;20103;-57
2023/05/31 05:52:56;;;;;;;16.33;5.80;;;13.70;99.90;;;;;;5116055;28;21294;-58
2023/05/31 05:55:21;;;;;;;17.95;5.32;;;13.60;99.90;;;;;;5115243;28;20495;-56
2023/05/31 05:57:47;;;;;;;13.15;4.25;;;13.90;99.90;;;;;;5116498;28;20043;-57
2023/05/31 06:00:15;;;;;;;12.60;4.22;;;13.80;99.90;;;;;;5114667;28;20077;-57
2023/05/31 06:02:41;;;;;;;12.18;4.45;;;13.90;99.90;;;;;;5116116;28;20050;-58
2023/05/31 06:05:07;;;;;;;11.98;4.20;;;14.00;99.90;;;;;;5115601;28;20095;-57
2023/05/31 06:07:33;;;;;;;12.13;4.25;;;14.30;99.90;;;;;;5119622;28;20044;-58
2023/05/31 06:10:00;;;;;;;10.45;3.58;;;14.50;99.90;;;;;;5119669;28;20805;-57
2023/05/31 06:12:25;;;;;;;11.27;3.90;;;14.30;99.90;;;;;;5118383;28;20055;-57
2023/05/31 06:14:51;;;;;;;10.30;3.60;;;14.50;99.90;;;;;;5119860;28;20041;-57
2023/05/31 06:17:17;;;;;;;8.73;3.30;;;14.60;99.90;;;;;;5118684;28;20046;-57
2023/05/31 06:19:43;;;;;;;11.23;3.50;;;14.50;99.90;;;;;;5119344;28;20044;-58
2023/05/31 06:22:08;;;;;;;11.23;3.30;;;14.60;99.90;;;;;;5118642;28;20044;-56
2023/05/31 06:24:34;;;;;;;8.48;3.30;;;14.80;99.90;;;;;;5118145;28;20043;-57
2023/05/31 06:27:02;;;;;;;9.85;3.08;;;14.80;99.90;;;;;;5118163;28;20043;-57
2023/05/31 06:29:28;;;;;;;7.97;3.28;;;14.70;99.90;;;;;;5118160;28;20062;-57
2023/05/31 06:31:55;;;;;;;9.15;3.05;;;14.80;99.90;;;;;;5119045;28;20099;-57
2023/05/31 06:34:21;;;;;;;8.20;3.00;;;14.80;99.90;;;;;;5117806;28;20040;-57
2023/05/31 06:36:47;;;;;;;9.07;2.97;;;14.80;99.90;;;;;;5119153;28;20085;-57
2023/05/31 06:39:13;;;;;;;7.70;2.88;;;14.80;99.90;;;;;;5118826;28;20428;-57
2023/05/31 06:41:39;;;;;;;7.93;2.72;;;15.00;99.90;;;;;;5118696;28;20052;-59
2023/05/31 06:44:04;;;;;;;8.98;2.30;;;15.00;99.90;;;;;;5118778;28;20071;-57
2023/05/31 06:46:31;;;;;;;9.38;2.70;;;15.20;99.90;;;;;;5118580;28;20035;-57
2023/05/31 06:48:56;;;;;;;8.77;2.00;;;15.10;99.90;;;;;;5119074;28;20050;-57
2023/05/31 06:51:22;;;;;;;6.13;2.10;;;15.20;99.90;;;;;;5118208;28;20107;-57
2023/05/31 06:53:51;;;;;;;6.88;1.95;;;15.10;99.90;;;;;;5119399;28;20885;-57
2023/05/31 06:56:17;;;;;;;7.45;1.95;;;15.20;99.90;;;;;;5118048;28;20039;-57
2023/05/31 06:58:43;;;;;;;7.82;2.05;;;15.30;99.90;;;;;;5118425;28;20058;-56
2023/05/31 07:01:09;;;;;;;8.05;2.25;;;15.50;99.90;;;;;;5118075;28;20056;-57
2023/05/31 07:03:35;;;;;;;11.20;2.30;;;15.60;99.90;;;;;;5118170;28;20059;-57
2023/05/31 07:06:01;;;;;;;6.35;2.00;;;15.50;99.90;;;;;;5118461;28;20036;-57
2023/05/31 07:08:26;;;;;;;6.43;1.80;;;15.60;99.90;;;;;;5117740;28;20493;-57
2023/05/31 07:10:53;;;;;;;8.57;2.08;;;15.70;99.90;;;;;;5117306;28;20051;-57
2023/05/31 07:13:19;;;;;;;7.78;2.60;;;15.60;99.90;;;;;;5117798;28;20072;-57
2023/05/31 07:15:45;;;;;;;6.70;2.08;;;15.80;99.90;;;;;;5118155;28;20103;-58
2023/05/31 07:18:10;;;;;;;8.05;2.60;;;15.70;99.90;;;;;;5116947;28;20056;-57
2023/05/31 07:20:36;;;;;;;9.43;2.47;;;15.70;99.90;;;;;;5117980;28;20040;-57
2023/05/31 07:23:02;;;;;;;9.70;2.35;;;15.80;99.90;;;;;;5117464;28;20101;-57
2023/05/31 07:25:27;;;;;;;9.68;2.55;;;15.90;99.90;;;;;;5115739;28;20157;-56
2023/05/31 07:27:53;;;;;;;7.25;2.40;;;15.90;99.90;;;;;;5118566;28;20048;-57
2023/05/31 07:30:20;;;;;;;14.15;2.80;;;15.90;99.90;;;;;;5117109;28;20039;-57
2023/05/31 07:32:46;;;;;;;9.98;3.03;;;16.20;99.90;;;;;;5117587;28;20047;-58
2023/05/31 07:35:11;;;;;;;8.23;2.30;;;16.30;99.90;;;;;;5117021;28;20053;-57
2023/05/31 07:37:37;;;;;;;10.00;2.75;;;16.30;99.90;;;;;;5116958;28;20199;-57
2023/05/31 07:40:06;;;;;;;10.48;2.90;;;16.40;99.90;;;;;;5117377;28;20055;-57
2023/05/31 07:42:32;;;;;;;9.23;2.83;;;16.40;99.90;;;;;;5116300;28;20051;-57
2023/05/31 07:44:59;;;;;;;9.55;2.47;;;16.40;99.90;;;;;;5115683;28;20039;-57
2023/05/31 07:47:24;;;;;;;7.88;2.25;;;16.60;99.90;;;;;;5116337;28;20050;-57
2023/05/31 07:49:51;;;;;;;8.55;2.95;;;16.60;99.90;;;;;;5117378;28;20134;-57
2023/05/31 07:52:21;;;;;;;9.68;2.63;;;16.70;99.90;;;;;;5116442;27;20096;-57
2023/05/31 07:54:48;;;;;;;7.07;2.25;;;16.60;99.90;;;;;;5116572;28;20112;-56
2023/05/31 07:57:15;;;;;;;8.88;2.28;;;16.50;99.90;;;;;;5116836;27;20043;-58
2023/05/31 07:59:40;;;;;;;8.23;2.80;;;16.50;99.90;;;;;;5116117;28;20063;-58
2023/05/31 08:02:06;;;;;;;9.55;2.80;;;16.60;99.90;;;;;;5117014;28;20043;-58
2023/05/31 08:04:32;;;;;;;8.75;2.65;;;16.80;99.90;;;;;;5116475;28;20048;-57
2023/05/31 08:06:57;;;;;;;9.00;3.05;;;16.80;99.90;;;;;;5117676;28;20530;-58
2023/05/31 08:09:23;;;;;;;9.82;2.40;;;17.00;99.90;;;;;;5116223;28;20050;-58
2023/05/31 08:11:49;;;;;;;8.18;2.40;;;16.90;99.90;;;;;;5116515;28;20403;-57
2023/05/31 08:14:14;;;;;;;10.85;2.45;;;17.20;99.90;;;;;;5117226;28;20122;-58
2023/05/31 08:16:40;;;;;;;12.80;2.78;;;17.20;99.90;;;;;;5116776;28;20056;-58
2023/05/31 08:19:06;;;;;;;8.85;2.20;;;17.40;99.90;;;;;;5119577;28;20587;-58
2023/05/31 08:21:32;;;;;;;7.28;2.05;;;17.40;99.90;;;;;;5118709;28;20051;-57
2023/05/31 08:23:58;;;;;;;10.77;2.67;;;17.50;99.90;;;;;;5120109;28;20047;-58
2023/05/31 08:26:25;;;;;;;12.10;2.70;;;17.60;99.90;;;;;;5119706;28;20050;-57
2023/05/31 08:28:51;;;;;;;8.27;2.33;;;17.20;99.90;;;;;;5119477;28;20129;-58
2023/05/31 08:31:17;;;;;;;7.72;2.33;;;17.40;99.90;;;;;;5119586;28;20132;-58
2023/05/31 08:33:56;;;;;;;13.77;3.03;;;17.40;99.90;;;;;;5119289;28;20466;-57
2023/05/31 08:36:23;;;;;;;10.88;3.25;;;17.30;99.90;;;;;;5118882;28;20132;-58
2023/05/31 08:38:48;;;;;;;10.75;3.30;;;17.20;99.90;;;;;;5117674;28;20104;-58
2023/05/31 08:41:14;;;;;;;11.45;3.38;;;17.40;99.90;;;;;;5118422;28;20051;-58
2023/05/31 08:43:40;;;;;;;12.00;4.53;;;17.20;99.90;;;;;;5119449;28;20040;-58
2023/05/31 08:46:07;;;;;;;11.07;3.67;;;17.20;99.90;;;;;;5118144;28;20063;-58
2023/05/31 08:48:37;;;;;;;14.10;3.55;;;17.30;99.90;;;;;;5119468;28;20044;-58
2023/05/31 08:51:05;;;;;;;12.55;3.28;;;17.10;99.90;;;;;;5118581;28;20842;-58
2023/05/31 08:53:33;;;;;;;11.32;3.30;;;16.90;99.90;;;;;;5120078;28;20039;-58
2023/05/31 08:56:01;;;;;;;12.73;3.60;;;16.90;99.90;;;;;;5118397;28;20138;-58
2023/05/31 08:58:29;;;;;;;13.23;4.22;;;17.10;99.90;;;;;;5117972;28;20524;-58
2023/05/31 09:00:55;;;;;;;11.85;3.92;;;16.90;99.90;;;;;;5118926;27;20048;-58
2023/05/31 09:03:22;;;;;;;11.55;3.88;;;17.00;99.90;;;;;;5118816;28;20059;-57
2023/05/31 09:05:48;;;;;;;13.13;4.68;;;17.00;99.90;;;;;;5117109;28;20060;-56
2023/05/31 09:08:14;;;;;;;14.70;4.38;;;17.00;99.90;;;;;;5118312;28;20084;-57
2023/05/31 09:10:41;;;;;;;13.48;4.78;;;17.00;99.90;;;;;;5119479;28;20036;-57
2023/05/31 09:13:07;;;;;;;14.13;5.05;;;17.10;99.90;;;;;;5110413;28;20043;-58
2023/05/31 09:15:36;;;;;;;13.90;4.35;;;16.90;99.90;;;;;;5118585;28;20035;-58
2023/05/31 09:18:15;;;;;;;15.07;4.55;;;16.80;99.90;;;;;;5118488;28;20040;-55
2023/05/31 09:20:42;;;;;;;12.35;4.78;;;16.60;99.90;;;;;;5116938;28;21385;-58
2023/05/31 09:23:09;;;;;;;14.23;4.88;;;16.50;99.90;;;;;;5118430;28;20507;-58
2023/05/31 09:25:49;;;;;;;11.15;4.47;;;16.70;99.90;;;;;;5118457;28;20036;-58
2023/05/31 09:28:17;;;;;;;15.38;4.80;;;16.60;99.90;;;;;;5119737;28;20043;-58
2023/05/31 09:30:43;;;;;;;10.45;4.60;;;16.70;99.90;;;;;;5118470;28;20886;-58
2023/05/31 09:33:10;;;;;;;14.25;4.25;;;16.60;99.90;;;;;;5119297;28;20043;-58
2023/05/31 09:35:35;;;;;;;12.43;4.40;;;16.30;99.90;;;;;;5118864;28;20051;-58
2023/05/31 09:38:06;;;;;;;15.70;4.53;;;16.50;99.90;;;;;;5118474;28;20096;-58
2023/05/31 09:40:32;;;;;;;13.00;4.45;;;16.90;99.90;;;;;;5119192;28;20052;-58
2023/05/31 09:42:59;;;;;;;12.93;4.43;;;16.90;99.90;;;;;;5122375;28;20044;-57
2023/05/31 09:45:25;;;;;;;13.38;4.57;;;16.70;99.90;;;;;;5122539;28;20054;-58
2023/05/31 09:47:51;;;;;;;12.50;4.35;;;16.40;99.90;;;;;;5123025;28;20047;-58
2023/05/31 09:50:18;;;;;;;10.80;4.05;;;16.50;99.90;;;;;;5122746;28;20052;-57
2023/05/31 09:52:45;;;;;;;12.32;4.90;;;16.30;99.90;;;;;;5122891;28;20039;-57
2023/05/31 09:55:13;;;;;;;9.95;4.70;;;16.30;99.90;;;;;;5122667;28;20043;-58
2023/05/31 09:57:40;;;;;;;14.40;4.95;;;16.50;99.90;;;;;;5123509;28;20103;-58
2023/05/31 10:00:27;;;;;;;10.13;4.85;;;16.50;99.90;;;;;;5122138;28;20067;-58
2023/05/31 10:02:54;;;;;;;15.20;5.97;;;16.20;99.90;;;;;;5123127;28;20055;-57
2023/05/31 10:05:20;;;;;;;11.50;5.53;;;16.40;99.90;;;;;;5122146;28;20075;-58
2023/05/31 10:07:53;;;;;;;12.82;5.82;;;16.70;99.90;;;;;;5122872;28;20050;-57
2023/05/31 10:10:21;;;;;;;9.75;4.97;;;16.80;99.90;;;;;;5123367;28;20181;-57
2023/05/31 10:12:56;;;;;;;11.15;5.22;;;16.90;99.90;;;;;;5122144;28;20035;-58
2023/05/31 10:15:26;;;;;;;10.38;5.35;;;16.90;99.90;;;;;;5122630;28;20663;-57
2023/05/31 10:18:01;;;;;;;12.85;5.57;;;16.90;99.90;;;;;;5121579;28;20179;-57
2023/05/31 10:20:48;;;;;;;10.43;5.60;;;17.00;99.90;;;;;;5121833;28;20487;-57
2023/05/31 10:23:22;;;;;;;10.77;5.03;;;17.00;99.90;;;;;;5122069;28;20081;-57
2023/05/31 10:25:57;;;;;;;14.77;5.53;;;17.30;99.90;;;;;;5121821;28;20087;-55
2023/05/31 10:28:27;;;;;;;11.40;4.90;;;17.40;99.90;;;;;;5122590;28;20058;-57
2023/05/31 10:30:56;;;;;;;12.65;4.80;;;17.20;99.90;;;;;;5120066;28;20079;-57
2023/05/31 10:33:24;;;;;;;12.85;5.13;;;17.40;99.90;;;;;;5121165;28;20075;-57
2023/05/31 10:35:50;;;;;;;14.13;5.95;;;17.50;99.90;;;;;;5121184;28;20515;-57
2023/05/31 10:38:20;;;;;;;11.95;4.05;;;17.40;99.90;;;;;;5120021;28;20069;-57
2023/05/31 10:40:49;;;;;;;12.95;4.13;;;17.30;99.90;;;;;;5122578;28;20047;-58
2023/05/31 10:43:29;;;;;;;10.45;3.88;;;17.40;99.90;;;;;;5121016;28;20061;-58
2023/05/31 10:46:06;;;;;;;10.15;3.88;;;17.60;99.90;;;;;;5121587;28;20441;-58
2023/05/31 10:48:43;;;;;;;10.07;4.07;;;17.70;99.90;;;;;;5121419;28;20067;-58
2023/05/31 10:51:10;;;;;;;12.90;4.45;;;17.90;99.90;;;;;;5121302;28;20047;-57
2023/05/31 10:53:40;;;;;;;12.80;4.32;;;17.60;99.90;;;;;;5120917;28;20051;-57
2023/05/31 10:56:15;;;;;;;10.68;4.20;;;17.70;99.90;;;;;;5120712;28;20047;-58
2023/05/31 10:58:59;;;;;;;13.07;4.40;;;17.70;99.90;;;;;;5121246;28;20048;-58
2023/05/31 11:01:28;;;;;;;12.95;3.55;;;18.00;99.90;;;;;;5119659;28;20431;-58
2023/05/31 11:03:58;;;;;;;11.48;3.65;;;17.90;99.90;;;;;;5119537;28;20118;-58
2023/05/31 11:06:27;;;;;;;11.48;4.00;;;18.00;99.90;;;;;;5120321;28;20454;-58
2023/05/31 11:09:23;;;;;;;12.13;4.72;;;18.10;99.90;;;;;;5119633;28;20031;-57
2023/05/31 11:11:50;;;;;;;10.13;3.83;;;18.00;99.90;;;;;;5114921;28;20055;-58
2023/05/31 11:14:15;;;;;;;11.75;3.92;;;18.00;99.90;;;;;;5119848;28;20058;-57
2023/05/31 11:16:44;;;;;;;10.05;4.45;;;18.00;99.90;;;;;;5119893;28;20746;-58
2023/05/31 11:19:17;;;;;;;11.20;4.50;;;18.20;99.90;;;;;;5119351;28;20047;-58
2023/05/31 11:21:47;;;;;;;12.30;4.63;;;18.10;99.90;;;;;;5120293;28;20043;-57
2023/05/31 11:24:33;;;;;;;11.43;4.22;;;18.10;99.90;;;;;;5118826;28;20062;-57
2023/05/31 11:27:00;;;;;;;8.70;3.83;;;18.20;99.90;;;;;;5119260;28;20071;-58
2023/05/31 11:29:44;;;;;;;11.27;4.10;;;18.10;99.90;;;;;;5119760;28;20101;-58
2023/05/31 11:32:11;;;;;;;13.07;4.70;;;18.10;99.90;;;;;;5120196;28;20055;-57
2023/05/31 11:34:53;;;;;;;11.80;4.05;;;18.20;99.90;;;;;;5118247;28;20036;-58
2023/05/31 11:37:21;;;;;;;12.57;4.35;;;18.10;99.90;;;;;;5119750;28;20047;-58
2023/05/31 11:39:47;;;;;;;11.23;4.32;;;18.30;99.90;;;;;;5119246;28;20040;-55
2023/05/31 11:42:14;;;;;;;15.80;4.60;;;18.40;99.90;;;;;;5119862;28;20062;-57
2023/05/31 11:44:45;;;;;;;13.43;4.70;;;18.10;99.90;;;;;;5119942;28;20039;-57
2023/05/31 11:47:24;;;;;;;12.18;3.90;;;18.40;99.90;;;;;;5119545;28;20092;-57
2023/05/31 11:49:50;;;;;;;9.25;3.45;;;18.00;99.90;;;;;;5119933;28;20051;-57
2023/05/31 11:52:17;;;;;;;10.07;3.92;;;18.20;99.90;;;;;;5119528;28;20047;-58
2023/05/31 11:54:45;;;;;;;13.60;4.68;;;18.20;99.90;;;;;;5119309;28;20039;-58
2023/05/31 11:57:12;;;;;;;10.80;3.63;;;17.90;99.90;;;;;;5119432;28;20077;-57
2023/05/31 11:59:39;;;;;;;10.90;3.50;;;18.30;99.90;;;;;;5118985;28;20072;-58
2023/05/31 12:02:06;;;;;;;9.35;3.53;;;18.00;99.90;;;;;;5119598;28;20058;-58
2023/05/31 12:04:37;;;;;;;11.30;3.85;;;18.10;99.90;;;;;;5118624;28;20411;-58
2023/05/31 12:07:04;;;;;;;10.60;3.45;;;18.20;99.90;;;;;;5119337;28;20047;-58
2023/05/31 12:09:30;;;;;;;8.27;3.58;;;18.20;99.90;;;;;;5119119;28;20043;-58
2023/05/31 12:11:56;;;;;;;9.32;3.30;;;18.00;99.90;;;;;;5119006;28;20035;-57
2023/05/31 12:14:24;;;;;;;12.18;3.13;;;18.10;99.90;;;;;;5119140;28;20047;-58
2023/05/31 12:16:51;;;;;;;9.48;3.50;;;18.10;99.90;;;;;;5118755;28;20080;-57
2023/05/31 12:19:17;;;;;;;10.30;3.40;;;17.90;99.90;;;;;;5118113;28;20496;-58
2023/05/31 12:21:43;;;;;;;9.32;4.22;;;18.20;99.90;;;;;;5117606;28;20474;-58
2023/05/31 12:24:16;;;;;;;8.60;3.13;;;18.20;99.90;;;;;;5118962;28;20047;-58
2023/05/31 12:26:43;;;;;;;10.27;3.17;;;18.10;99.90;;;;;;5118510;28;20047;-58
2023/05/31 12:29:11;;;;;;;9.90;3.45;;;18.10;99.90;;;;;;5118969;28;20044;-58
2023/05/31 12:31:37;;;;;;;9.60;3.30;;;18.30;99.90;;;;;;5118426;27;20043;-58
2023/05/31 12:34:10;;;;;;;10.02;3.78;;;18.30;99.90;;;;;;5118543;28;20137;-58
2023/05/31 12:36:41;;;;;;;9.18;4.60;;;18.20;99.90;;;;;;5117670;28;20062;-58
2023/05/31 12:39:09;;;;;;;10.60;4.70;;;18.50;99.90;;;;;;5118476;28;20044;-57
2023/05/31 12:41:35;;;;;;;9.23;4.10;;;18.30;99.90;;;;;;5118040;28;20120;-58
2023/05/31 12:44:01;;;;;;;9.18;4.15;;;18.40;99.90;;;;;;5118508;28;20083;-58